Lonesome Pine Airport


Codes: KLNP/LNP
Name: Lonesome Pine Airport
City: Wise
Country: United States
Elevation: 2684 ft.
Wikipedia:

Photos at Lonesome Pine Airport


   Photos courtesy of SpottingLog. You can add your own sightings and photos by signing up for a free trial today.



No photos found.

Weather at Lonesome Pine Airport


Time (UTC)DescriptionTempratureWindCloud coverageVisibilityPressureHumidity
21-Feb-2024 03:00Clear Sky3°C4 mph, SW0%10000m1025hPa41%
21-Feb-2024 06:00Clear Sky2°C4 mph, S0%10000m1026hPa50%
21-Feb-2024 09:00Clear Sky1°C4 mph, S0%10000m1026hPa64%
21-Feb-2024 12:00Clear Sky-1°C4 mph, S4%10000m1028hPa84%
21-Feb-2024 15:00Clear Sky7°C4 mph, S0%10000m1026hPa57%
21-Feb-2024 18:00Clear Sky10°C7 mph, SW7%10000m1024hPa46%
21-Feb-2024 21:00Broken Clouds11°C7 mph, SW66%10000m1021hPa47%
22-Feb-2024 00:00Broken Clouds5°C4 mph, S83%10000m1021hPa75%
22-Feb-2024 03:00Broken Clouds3°C4 mph, S64%10000m1020hPa83%
22-Feb-2024 06:00Broken Clouds3°C4 mph, S80%10000m1019hPa85%
22-Feb-2024 09:00Overcast Clouds3°C4 mph, S100%10000m1018hPa86%
22-Feb-2024 12:00Overcast Clouds2°C4 mph, S100%10000m1016hPa89%
22-Feb-2024 15:00Overcast Clouds8°C9 mph, SW100%10000m1012hPa67%
22-Feb-2024 18:00Overcast Clouds12°C13 mph, SW100%10000m1008hPa57%
22-Feb-2024 21:00Light Rain12°C16 mph, SW100%9564m1005hPa62%
23-Feb-2024 00:00Moderate Rain8°C13 mph, SW100%7800m1005hPa90%
23-Feb-2024 03:00Heavy Intensity Rain9°C7 mph, SW100%6488m1003hPa94%
23-Feb-2024 06:00Moderate Rain8°C4 mph, W100%4946m1001hPa98%
23-Feb-2024 09:00Light Rain6°C9 mph, NW100%10000m1002hPa96%
23-Feb-2024 12:00Overcast Clouds4°C7 mph, NW100%10000m1005hPa90%
23-Feb-2024 15:00Overcast Clouds5°C4 mph, NW100%10000m1006hPa79%
23-Feb-2024 18:00Broken Clouds9°C9 mph, NW53%10000m1005hPa59%
23-Feb-2024 21:00Light Rain8°C9 mph, NW60%10000m1005hPa66%
24-Feb-2024 00:00Light Rain5°C9 mph, NW78%10000m1007hPa82%
24-Feb-2024 03:00Light Rain3°C7 mph, NW61%10000m1009hPa80%
24-Feb-2024 06:00Light Rain2°C7 mph, NW68%10000m1010hPa85%
24-Feb-2024 09:00Light Snow2°C4 mph, NW92%10000m1010hPa83%
24-Feb-2024 12:00Overcast Clouds-0°C2 mph, W93%10000m1012hPa92%
24-Feb-2024 15:00Overcast Clouds3°C4 mph, NW100%10000m1013hPa79%
24-Feb-2024 18:00Light Rain3°C7 mph, NW100%201m1014hPa92%
24-Feb-2024 21:00Light Snow-0°C4 mph, N100%112m1017hPa97%
25-Feb-2024 00:00Light Snow-1°C4 mph, N100%10000m1020hPa89%
25-Feb-2024 03:00Broken Clouds-3°C2 mph, W65%10000m1022hPa94%
25-Feb-2024 06:00Scattered Clouds-3°C4 mph, S42%10000m1023hPa94%
25-Feb-2024 09:00Scattered Clouds-3°C4 mph, SW39%10000m1023hPa93%
25-Feb-2024 12:00Few Clouds-4°C4 mph, S22%10000m1023hPa95%
25-Feb-2024 15:00Clear Sky2°C9 mph, S6%10000m1022hPa65%
25-Feb-2024 18:00Clear Sky8°C9 mph, SW4%10000m1018hPa43%
25-Feb-2024 21:00Clear Sky10°C11 mph, SW2%10000m1016hPa48%
26-Feb-2024 00:00Scattered Clouds5°C7 mph, SW33%10000m1018hPa70%